createdAt,value
2019-04-14T00:02:55.673Z,23.73
2019-04-14T00:05:45.094Z,23.10
2019-04-14T00:08:34.735Z,21.80
2019-04-14T00:11:23.516Z,21.07
2019-04-14T00:14:11.827Z,22.50
2019-04-14T00:17:06.613Z,23.70
2019-04-14T00:19:54.678Z,27.60
2019-04-14T00:22:42.543Z,23.20
2019-04-14T00:25:30.530Z,23.63
2019-04-14T00:28:18.862Z,22.40
2019-04-14T00:31:08.700Z,20.47
2019-04-14T00:34:00.603Z,22.63
2019-04-14T00:37:14.544Z,22.70
2019-04-14T00:40:10.514Z,21.97
2019-04-14T00:43:13.420Z,22.87
2019-04-14T00:46:14.788Z,22.37
2019-04-14T00:49:03.489Z,20.93
2019-04-14T00:51:52.836Z,21.20
2019-04-14T00:54:41.456Z,20.33
2019-04-14T00:57:30.947Z,20.97
2019-04-14T01:00:20.730Z,20.50
2019-04-14T01:03:09.672Z,20.87
2019-04-14T01:05:59.035Z,26.60
2019-04-14T01:08:48.878Z,20.53
2019-04-14T01:11:37.856Z,23.40
2019-04-14T01:37:57.178Z,25.63
2019-04-14T01:40:58.482Z,19.50
2019-04-14T02:06:50.563Z,21.17
2019-04-14T02:10:04.820Z,22.47
2019-04-14T02:16:23.993Z,22.00
2019-04-14T02:19:04.656Z,24.97
2019-04-14T02:21:54.098Z,26.10
2019-04-14T02:36:48.016Z,24.83
2019-04-14T07:13:42.217Z,26.37
2019-04-14T07:31:47.407Z,26.73
2019-04-14T07:39:49.146Z,30.70
2019-04-14T07:43:10.602Z,28.03
2019-04-14T07:47:02.195Z,26.10
2019-04-14T09:36:06.749Z,15.97
2019-04-14T09:49:17.114Z,16.75
2019-04-14T09:52:12.185Z,15.40
2019-04-14T09:55:00.739Z,15.47
2019-04-14T09:57:48.830Z,18.37
2019-04-14T10:00:45.401Z,17.60
2019-04-14T10:03:34.264Z,16.20
2019-04-14T10:06:22.924Z,14.43
2019-04-14T10:09:11.386Z,15.13
2019-04-14T10:11:59.446Z,13.83
2019-04-14T10:14:47.937Z,14.63
2019-04-14T10:17:35.905Z,16.30
2019-04-14T10:20:24.102Z,14.20
2019-04-14T10:23:12.803Z,14.53
2019-04-14T10:26:00.930Z,12.57
2019-04-14T10:28:50.727Z,14.40
2019-04-14T10:31:40.061Z,16.50
2019-04-14T10:34:28.955Z,16.30
2019-04-14T10:37:17.270Z,15.73
2019-04-14T10:40:06.282Z,16.47
2019-04-14T10:42:54.943Z,17.37
2019-04-14T10:45:42.915Z,19.93
2019-04-14T10:48:31.879Z,21.70
2019-04-14T10:51:29.919Z,17.57
2019-04-14T10:54:10.308Z,17.60
2019-04-14T10:57:00.954Z,19.17
2019-04-14T10:59:48.391Z,18.53
2019-04-14T11:02:36.416Z,15.30
2019-04-14T11:05:27.181Z,14.77
2019-04-14T11:08:15.064Z,17.43
2019-04-14T11:11:03.411Z,19.00
2019-04-14T11:13:51.553Z,20.17
2019-04-14T11:16:40.174Z,18.40
2019-04-14T11:19:28.654Z,17.97
2019-04-14T11:22:17.054Z,17.47
2019-04-14T11:25:06.581Z,20.17
2019-04-14T11:27:55.378Z,15.90
2019-04-14T11:30:44.529Z,16.53
2019-04-14T11:33:36.935Z,18.90
2019-04-14T11:36:43.002Z,22.23
2019-04-14T11:39:31.567Z,19.27
2019-04-14T11:42:19.933Z,17.73
2019-04-14T11:45:08.896Z,18.57
2019-04-14T11:47:57.871Z,18.13
2019-04-14T11:50:46.248Z,17.70
2019-04-14T11:53:35.936Z,18.73
2019-04-14T11:56:24.518Z,22.53
2019-04-14T11:59:13.144Z,17.20
2019-04-14T12:02:11.311Z,16.90
2019-04-14T12:05:10.145Z,18.67
2019-04-14T12:08:14.201Z,22.23
2019-04-14T12:11:02.867Z,20.53
2019-04-14T12:13:51.026Z,21.57
2019-04-14T12:16:39.386Z,22.23
2019-04-14T12:19:27.857Z,18.43
2019-04-14T12:22:15.457Z,19.37
2019-04-14T12:25:03.820Z,18.67
2019-04-14T12:27:53.553Z,18.23
2019-04-14T12:30:42.626Z,14.83
2019-04-14T12:33:31.461Z,20.43
2019-04-14T12:39:21.228Z,20.47
2019-04-14T12:42:38.000Z,17.70
2019-04-14T12:45:53.462Z,18.87
2019-04-14T12:48:58.032Z,22.30
2019-04-14T12:52:05.829Z,18.30
2019-04-14T12:54:54.102Z,20.27
2019-04-14T12:57:50.348Z,18.47
2019-04-14T13:00:42.637Z,18.80
2019-04-14T13:03:33.074Z,20.77
2019-04-14T13:06:21.547Z,17.63
2019-04-14T13:09:14.594Z,15.13
2019-04-14T13:12:02.289Z,16.93
2019-04-14T13:14:50.230Z,16.27
2019-04-14T13:17:38.382Z,18.20
2019-04-14T13:23:20.418Z,12.97
2019-04-14T13:26:08.657Z,15.23
2019-04-14T13:28:57.412Z,13.43
2019-04-14T13:31:46.211Z,16.17
2019-04-14T13:34:34.736Z,17.27
2019-04-14T13:37:22.488Z,15.90
2019-04-14T13:40:11.242Z,13.60
2019-04-14T13:43:25.565Z,14.53
2019-04-14T13:46:14.178Z,15.30
2019-04-14T13:49:02.576Z,16.80
2019-04-14T13:51:51.436Z,15.70
2019-04-14T13:54:40.206Z,11.57
2019-04-14T13:57:28.745Z,14.70
2019-04-14T14:00:18.531Z,12.93
2019-04-14T14:03:06.842Z,13.20
2019-04-14T14:05:58.510Z,13.17
2019-04-14T14:08:47.323Z,13.30
2019-04-14T14:11:41.563Z,9.10
2019-04-14T14:15:01.123Z,10.90
2019-04-14T14:18:07.383Z,9.17
2019-04-14T14:21:04.584Z,7.83
2019-04-14T14:24:00.243Z,9.40
2019-04-14T14:26:50.267Z,10.83
2019-04-14T14:29:39.102Z,8.73
2019-04-14T14:32:33.601Z,11.57
2019-04-14T14:35:22.370Z,13.20
2019-04-14T14:38:11.085Z,9.90
2019-04-14T14:41:01.118Z,8.63
2019-04-14T14:43:54.935Z,9.33
2019-04-14T14:46:57.275Z,10.00
2019-04-14T14:50:07.963Z,8.33
2019-04-14T14:52:56.505Z,6.20
2019-04-14T14:55:44.606Z,7.37
2019-04-14T14:58:33.198Z,6.93
2019-04-14T15:01:21.751Z,9.00
2019-04-14T15:04:09.946Z,7.40
2019-04-14T15:06:58.211Z,8.10
2019-04-14T15:09:46.098Z,7.80
2019-04-14T15:12:35.031Z,8.63
2019-04-14T15:15:23.843Z,9.10
2019-04-14T15:18:12.898Z,10.90
2019-04-14T15:21:01.925Z,13.43
2019-04-14T15:23:50.035Z,10.80
2019-04-14T15:26:38.528Z,11.20
2019-04-14T15:29:26.430Z,9.80
2019-04-14T15:32:15.651Z,10.27
2019-04-14T15:35:04.707Z,10.17
2019-04-14T15:37:53.339Z,8.43
2019-04-14T15:40:41.262Z,8.10
2019-04-14T15:43:33.330Z,10.30
2019-04-14T15:46:22.034Z,10.33
2019-04-14T15:49:14.922Z,7.73
2019-04-14T15:52:03.926Z,8.70
2019-04-14T15:54:52.071Z,10.07
2019-04-14T15:57:59.432Z,12.30
2019-04-14T16:01:07.977Z,8.40
2019-04-14T16:04:08.341Z,10.17
2019-04-14T16:07:06.050Z,7.10
2019-04-14T16:10:00.339Z,10.63
2019-04-14T16:12:53.981Z,7.70
2019-04-14T16:15:52.753Z,8.20
2019-04-14T16:19:00.438Z,7.67
2019-04-14T16:21:49.179Z,9.10
2019-04-14T16:24:36.841Z,7.67
2019-04-14T16:27:32.642Z,9.03
2019-04-14T16:30:43.180Z,8.50
2019-04-14T16:33:50.520Z,7.23
2019-04-14T16:36:39.053Z,9.73
2019-04-14T16:39:27.395Z,9.13
2019-04-14T16:42:15.822Z,8.87
2019-04-14T16:45:04.496Z,7.90
2019-04-14T16:47:55.064Z,9.40
2019-04-14T16:50:47.709Z,10.20
2019-04-14T16:53:39.156Z,8.70
2019-04-14T16:56:37.902Z,9.30
2019-04-14T16:59:26.554Z,7.70
2019-04-14T17:02:15.683Z,9.80
2019-04-14T17:05:04.845Z,8.60
2019-04-14T17:07:53.848Z,10.13
2019-04-14T17:10:41.999Z,10.33
2019-04-14T17:13:34.039Z,7.70
2019-04-14T17:16:41.147Z,10.27
2019-04-14T17:20:07.630Z,8.23
2019-04-14T17:23:13.723Z,9.30
2019-04-14T17:26:10.365Z,7.10
2019-04-14T17:29:03.987Z,11.13
2019-04-14T17:32:05.393Z,12.83
2019-04-14T17:35:12.650Z,9.50
2019-04-14T17:38:08.469Z,12.00
2019-04-14T17:41:18.782Z,15.73
2019-04-14T17:44:11.314Z,9.70
2019-04-14T17:47:14.637Z,10.10
2019-04-14T17:50:22.927Z,7.90
2019-04-14T17:53:18.384Z,9.90
2019-04-14T17:56:12.954Z,10.30
2019-04-14T17:59:21.602Z,10.17
2019-04-14T18:02:21.651Z,12.40
2019-04-14T18:05:23.271Z,8.97
2019-04-14T18:08:18.502Z,9.87
2019-04-14T18:11:15.414Z,10.10
2019-04-14T18:14:22.507Z,9.30
2019-04-14T18:17:46.541Z,8.73
2019-04-14T18:20:40.246Z,10.80
2019-04-14T18:23:28.555Z,9.77
2019-04-14T18:26:17.367Z,10.90
2019-04-14T18:29:23.307Z,9.67
2019-04-14T18:32:20.021Z,10.17
2019-04-14T18:35:15.277Z,9.20
2019-04-14T18:38:21.854Z,11.20
2019-04-14T18:41:27.428Z,9.70
2019-04-14T18:44:21.404Z,8.00
2019-04-14T18:47:31.455Z,7.73
2019-04-14T18:50:41.925Z,10.73
2019-04-14T18:53:41.168Z,10.20
2019-04-14T18:56:47.786Z,8.77
2019-04-14T18:59:45.488Z,10.00
2019-04-14T19:02:33.822Z,9.97
2019-04-14T19:05:26.062Z,8.80
2019-04-14T19:08:15.435Z,11.20
2019-04-14T19:11:19.466Z,11.80
2019-04-14T19:14:09.051Z,10.77
2019-04-14T19:17:01.752Z,9.17
2019-04-14T19:20:01.251Z,10.07
2019-04-14T19:22:44.121Z,8.60
2019-04-14T19:25:32.299Z,9.33
2019-04-14T19:28:21.400Z,8.37
2019-04-14T19:31:09.390Z,9.67
2019-04-14T19:33:57.994Z,10.50
2019-04-14T19:36:46.541Z,9.10
2019-04-14T19:39:35.082Z,8.10
2019-04-14T19:42:30.397Z,12.30
2019-04-14T19:45:19.182Z,8.90
2019-04-14T19:48:08.823Z,10.33
2019-04-14T19:50:58.156Z,12.10
2019-04-14T19:53:46.874Z,10.10
2019-04-14T19:56:35.662Z,11.67
2019-04-14T19:59:26.818Z,10.53
2019-04-14T20:02:15.529Z,9.23
2019-04-14T20:05:03.542Z,10.90
2019-04-14T20:07:52.938Z,11.03
2019-04-14T20:10:41.846Z,12.67
2019-04-14T20:13:34.474Z,9.43
2019-04-14T20:16:34.305Z,9.90
2019-04-14T20:19:44.383Z,9.90
2019-04-14T20:22:52.693Z,13.10
2019-04-14T20:26:01.513Z,10.83
2019-04-14T20:28:53.986Z,10.50
2019-04-14T20:31:55.052Z,12.70
2019-04-14T20:34:44.313Z,11.37
2019-04-14T20:37:33.683Z,11.60
2019-04-14T20:40:22.254Z,12.30
2019-04-14T20:43:11.586Z,10.00
2019-04-14T20:46:00.189Z,12.87
2019-04-14T20:48:48.615Z,10.20
2019-04-14T20:51:37.973Z,14.40
2019-04-14T20:54:26.686Z,11.93
2019-04-14T20:57:14.967Z,10.40
2019-04-14T21:00:04.380Z,9.67
2019-04-14T21:03:11.176Z,11.63
2019-04-14T21:06:21.173Z,9.27
2019-04-14T21:09:20.384Z,12.00
2019-04-14T21:12:23.527Z,10.03
2019-04-14T21:15:17.947Z,10.20
2019-04-14T21:18:16.122Z,11.47
2019-04-14T21:21:14.761Z,12.60
2019-04-14T21:24:08.670Z,11.17
2019-04-14T21:27:15.968Z,12.60
2019-04-14T21:30:15.052Z,12.60
2019-04-14T21:33:29.726Z,14.70
2019-04-14T21:36:32.679Z,13.03
2019-04-14T21:39:40.507Z,10.67
2019-04-14T21:42:27.778Z,11.40
2019-04-14T21:45:16.788Z,11.37
2019-04-14T21:48:05.347Z,12.03
2019-04-14T21:50:54.014Z,13.63
2019-04-14T21:53:42.924Z,12.80
2019-04-14T21:56:33.182Z,13.07
2019-04-14T21:59:26.135Z,13.03
2019-04-14T22:02:46.219Z,10.37
2019-04-14T22:05:41.894Z,10.30
2019-04-14T22:08:33.099Z,14.93
2019-04-14T22:11:24.018Z,13.00
2019-04-14T22:14:12.274Z,11.90
2019-04-14T22:17:00.618Z,13.40
2019-04-14T22:19:48.809Z,13.70
2019-04-14T22:22:43.387Z,15.23
2019-04-14T22:25:32.446Z,12.40
2019-04-14T22:28:20.695Z,13.10
2019-04-14T22:31:08.725Z,14.40
2019-04-14T22:33:57.943Z,15.83
2019-04-14T22:36:45.963Z,13.27
2019-04-14T22:39:35.498Z,12.17
2019-04-14T22:42:23.931Z,12.97
2019-04-14T22:45:13.642Z,15.97
2019-04-14T22:48:02.223Z,12.07
2019-04-14T22:50:51.579Z,14.40
2019-04-14T22:53:40.412Z,14.50
2019-04-14T22:56:38.574Z,13.47
2019-04-14T22:59:17.744Z,11.77
2019-04-14T23:02:11.986Z,13.07
2019-04-14T23:05:20.134Z,13.43
2019-04-14T23:08:23.638Z,13.93
2019-04-14T23:11:24.062Z,16.80
2019-04-14T23:14:31.627Z,15.57
2019-04-14T23:17:43.851Z,14.27
2019-04-14T23:20:45.733Z,17.50
2019-04-14T23:23:41.052Z,13.27
2019-04-14T23:26:29.676Z,14.07
2019-04-14T23:29:17.735Z,15.10
2019-04-14T23:32:06.720Z,16.30
2019-04-14T23:34:55.489Z,14.40
2019-04-14T23:37:43.961Z,16.63
2019-04-14T23:40:32.653Z,15.70
2019-04-14T23:43:20.539Z,14.80
2019-04-14T23:46:08.635Z,13.63
2019-04-14T23:48:57.525Z,18.30
2019-04-14T23:51:45.615Z,16.53
2019-04-14T23:54:34.324Z,17.00
2019-04-14T23:57:22.278Z,16.40
